createdAt,value
2022-11-26T00:00:53.659Z,48.20
2022-11-26T00:03:31.000Z,44.88
2022-11-26T00:05:58.654Z,44.70
2022-11-26T00:08:33.912Z,45.05
2022-11-26T00:11:02.665Z,46.35
2022-11-26T00:13:31.556Z,42.00
2022-11-26T00:15:59.085Z,45.17
2022-11-26T00:18:29.106Z,41.22
2022-11-26T00:21:00.701Z,41.13
2022-11-26T00:23:28.918Z,29.77
2022-11-26T00:26:02.208Z,36.40
2022-11-26T00:28:33.348Z,33.53
2022-11-26T00:31:03.472Z,36.10
2022-11-26T00:33:31.218Z,33.58
2022-11-26T00:36:25.361Z,31.92
2022-11-26T00:39:01.071Z,34.13
2022-11-26T00:41:35.089Z,35.05
2022-11-26T00:44:02.393Z,36.30
2022-11-26T00:46:29.972Z,36.40
2022-11-26T00:48:57.123Z,36.00
2022-11-26T00:51:28.782Z,32.20
2022-11-26T00:54:00.338Z,30.85
2022-11-26T00:56:28.299Z,29.10
2022-11-26T00:58:55.443Z,29.17
2022-11-26T01:01:30.200Z,29.45
2022-11-26T01:03:58.473Z,30.50
2022-11-26T01:06:36.889Z,27.70
2022-11-26T01:09:05.539Z,26.95
2022-11-26T01:11:33.480Z,27.00
2022-11-26T01:14:00.725Z,28.55
2022-11-26T01:16:34.399Z,28.35
2022-11-26T01:19:02.424Z,28.35
2022-11-26T01:21:31.553Z,27.65
2022-11-26T01:23:58.701Z,27.15
2022-11-26T01:26:28.843Z,26.60
2022-11-26T01:28:56.145Z,28.58
2022-11-26T01:31:28.648Z,28.88
2022-11-26T01:33:57.025Z,31.08
2022-11-26T01:36:30.383Z,29.70
2022-11-26T01:39:14.705Z,29.33
2022-11-26T01:42:21.031Z,27.75
2022-11-26T01:44:48.184Z,27.17
2022-11-26T01:47:28.053Z,28.27
2022-11-26T01:50:32.018Z,28.38
2022-11-26T01:53:07.023Z,28.38
2022-11-26T01:55:42.283Z,28.95
2022-11-26T01:58:15.133Z,29.92
2022-11-26T02:00:42.633Z,29.73
2022-11-26T02:03:10.270Z,30.75
2022-11-26T02:05:44.439Z,27.35
2022-11-26T02:08:12.920Z,28.85
2022-11-26T02:10:40.105Z,28.05
2022-11-26T02:13:07.713Z,28.90
2022-11-26T02:15:45.706Z,30.05
2022-11-26T02:18:13.393Z,27.88
2022-11-26T02:20:51.187Z,29.13
2022-11-26T02:23:51.721Z,29.63
2022-11-26T02:26:39.857Z,30.83
2022-11-26T02:29:07.204Z,30.30
2022-11-26T02:31:46.657Z,28.90
2022-11-26T02:34:37.174Z,31.20
2022-11-26T02:37:12.610Z,29.75
2022-11-26T02:39:40.022Z,27.50
2022-11-26T02:42:28.943Z,26.33
2022-11-26T02:45:02.272Z,29.60
2022-11-26T02:47:30.143Z,30.85
2022-11-26T02:50:01.951Z,28.25
2022-11-26T02:52:30.308Z,29.92
2022-11-26T02:54:58.637Z,29.02
2022-11-26T02:57:30.611Z,27.52
2022-11-26T02:59:58.463Z,29.00
2022-11-26T03:02:41.223Z,29.55
2022-11-26T03:05:11.604Z,29.45
2022-11-26T03:07:39.505Z,29.65
2022-11-26T03:10:07.745Z,28.35
2022-11-26T03:12:34.872Z,29.00
2022-11-26T03:15:02.296Z,30.48
2022-11-26T03:17:29.464Z,28.48
2022-11-26T03:19:57.008Z,29.50
2022-11-26T03:22:24.280Z,29.20
2022-11-26T03:24:51.723Z,29.75
2022-11-26T03:27:18.941Z,29.50
2022-11-26T03:29:46.403Z,28.60
2022-11-26T03:32:13.530Z,28.05
2022-11-26T03:34:41.074Z,29.60
2022-11-26T03:37:08.763Z,29.08
2022-11-26T03:39:36.183Z,29.77
2022-11-26T03:42:03.593Z,30.27
2022-11-26T03:44:31.171Z,28.10
2022-11-26T03:46:58.370Z,28.42
2022-11-26T03:49:25.850Z,29.23
2022-11-26T03:51:53.030Z,27.73
2022-11-26T03:54:20.471Z,29.10
2022-11-26T03:56:47.623Z,28.48
2022-11-26T03:59:15.063Z,29.73
2022-11-26T04:01:42.291Z,30.73
2022-11-26T04:04:09.954Z,28.80
2022-11-26T04:06:37.216Z,29.75
2022-11-26T04:09:05.332Z,28.17
2022-11-26T04:11:32.697Z,30.08
2022-11-26T04:14:00.176Z,29.85
2022-11-26T04:16:27.454Z,29.77
2022-11-26T04:18:55.091Z,30.40
2022-11-26T04:21:22.394Z,27.90
2022-11-26T04:23:49.956Z,27.95
2022-11-26T04:26:17.229Z,27.75
2022-11-26T04:28:46.450Z,28.92
2022-11-26T04:31:13.795Z,29.80
2022-11-26T04:33:42.351Z,28.67
2022-11-26T04:36:10.170Z,28.48
2022-11-26T04:38:38.043Z,31.98
2022-11-26T04:41:05.401Z,30.88
2022-11-26T04:43:32.886Z,29.58
2022-11-26T04:46:00.346Z,29.17
2022-11-26T04:48:28.019Z,28.85
2022-11-26T04:50:55.163Z,29.55
2022-11-26T04:53:23.091Z,30.70
2022-11-26T04:55:51.410Z,28.58
2022-11-26T04:58:20.475Z,28.52
2022-11-26T05:00:50.969Z,29.25
2022-11-26T05:03:19.522Z,27.35
2022-11-26T05:05:47.261Z,28.00
2022-11-26T05:08:14.954Z,26.70
2022-11-26T05:10:43.119Z,28.38
2022-11-26T05:13:10.731Z,27.70
2022-11-26T05:15:38.141Z,27.98
2022-11-26T05:18:05.698Z,27.35
2022-11-26T05:20:32.851Z,27.00
2022-11-26T05:23:00.350Z,26.42
2022-11-26T05:25:27.601Z,27.50
2022-11-26T05:27:55.030Z,27.27
2022-11-26T05:30:22.210Z,28.90
2022-11-26T05:32:49.655Z,26.40
2022-11-26T05:35:16.937Z,26.88
2022-11-26T05:37:44.364Z,27.45
2022-11-26T05:40:11.900Z,27.35
2022-11-26T05:42:39.402Z,27.67
2022-11-26T05:45:07.371Z,26.80
2022-11-26T05:47:34.843Z,27.20
2022-11-26T05:50:02.416Z,27.73
2022-11-26T05:52:29.868Z,26.55
2022-11-26T05:54:57.020Z,26.98
2022-11-26T05:57:24.468Z,27.90
2022-11-26T05:59:51.840Z,27.80
2022-11-26T06:02:19.439Z,26.42
2022-11-26T06:04:46.746Z,25.67
2022-11-26T06:07:14.316Z,26.50
2022-11-26T06:09:41.706Z,25.25
2022-11-26T06:12:09.296Z,27.55
2022-11-26T06:14:41.619Z,24.67
2022-11-26T06:17:11.121Z,25.90
2022-11-26T06:19:38.637Z,23.95
2022-11-26T06:22:06.226Z,22.67
2022-11-26T06:24:33.531Z,23.33
2022-11-26T06:27:00.991Z,23.30
2022-11-26T06:29:28.507Z,23.33
2022-11-26T06:31:55.966Z,22.45
2022-11-26T06:34:23.200Z,22.70
2022-11-26T06:36:50.786Z,23.50
2022-11-26T06:39:17.944Z,24.40
2022-11-26T06:41:45.349Z,21.63
2022-11-26T06:44:12.483Z,24.98
2022-11-26T06:46:39.999Z,22.95
2022-11-26T06:49:07.447Z,22.08
2022-11-26T06:51:34.938Z,23.15
2022-11-26T06:54:02.143Z,22.15
2022-11-26T06:56:29.637Z,22.58
2022-11-26T06:58:57.182Z,22.58
2022-11-26T07:01:26.514Z,21.73
2022-11-26T07:03:54.920Z,23.33
2022-11-26T07:06:27.801Z,21.85
2022-11-26T07:08:57.000Z,21.27
2022-11-26T07:11:26.476Z,24.08
2022-11-26T07:13:54.140Z,21.75
2022-11-26T07:16:22.067Z,21.48
2022-11-26T07:18:51.015Z,23.20
2022-11-26T07:21:20.103Z,21.20
2022-11-26T07:23:47.978Z,21.05
2022-11-26T07:26:16.803Z,22.88
2022-11-26T07:28:44.223Z,22.70
2022-11-26T07:31:16.903Z,20.40
2022-11-26T07:33:45.703Z,21.42
2022-11-26T07:36:22.364Z,21.13
2022-11-26T07:38:49.986Z,22.58
2022-11-26T07:41:19.507Z,21.05
2022-11-26T07:43:47.358Z,20.33
2022-11-26T07:46:18.000Z,23.35
2022-11-26T07:48:45.845Z,21.77
2022-11-26T07:51:24.793Z,23.05
2022-11-26T07:53:53.101Z,24.60
2022-11-26T07:56:21.088Z,22.35
2022-11-26T07:58:48.819Z,23.13
2022-11-26T08:01:19.770Z,23.42
2022-11-26T08:03:50.305Z,22.92
2022-11-26T08:06:20.841Z,21.63
2022-11-26T08:08:48.590Z,21.83
2022-11-26T08:11:18.455Z,21.08
2022-11-26T08:13:46.753Z,22.30
2022-11-26T08:16:15.489Z,22.35
2022-11-26T08:18:42.720Z,21.77
2022-11-26T08:21:10.755Z,20.40
2022-11-26T08:23:38.174Z,20.67
2022-11-26T08:26:33.608Z,20.30
2022-11-26T08:28:58.686Z,20.88
2022-11-26T08:31:28.100Z,19.88
2022-11-26T08:34:03.021Z,20.75
2022-11-26T08:36:31.646Z,21.27
2022-11-26T08:39:00.362Z,21.70
2022-11-26T08:41:27.935Z,21.38
2022-11-26T08:44:10.392Z,20.83
2022-11-26T08:46:39.512Z,19.75
2022-11-26T08:49:08.247Z,19.88
2022-11-26T08:51:35.751Z,20.27
2022-11-26T08:54:03.017Z,20.15
2022-11-26T08:56:30.535Z,20.15
2022-11-26T08:58:58.172Z,20.98
2022-11-26T09:01:27.969Z,19.63
2022-11-26T09:03:57.669Z,19.88
2022-11-26T09:06:27.912Z,19.88
2022-11-26T09:09:13.329Z,17.95
2022-11-26T09:11:58.651Z,20.25
2022-11-26T09:14:28.555Z,19.75
2022-11-26T09:16:57.470Z,20.17
2022-11-26T09:19:25.609Z,19.75
2022-11-26T09:21:53.087Z,20.77
2022-11-26T09:24:21.428Z,20.20
2022-11-26T09:26:49.825Z,21.48
2022-11-26T09:29:20.089Z,20.27
2022-11-26T09:32:22.096Z,21.50
2022-11-26T09:34:37.402Z,20.80
2022-11-26T09:37:05.076Z,19.38
2022-11-26T09:39:32.225Z,20.35
2022-11-26T09:42:12.196Z,21.02
2022-11-26T09:44:45.280Z,19.77
2022-11-26T09:47:17.640Z,20.17
2022-11-26T09:50:03.258Z,20.65
2022-11-26T09:52:37.030Z,20.63
2022-11-26T09:55:20.491Z,19.73
2022-11-26T09:58:15.545Z,20.30
2022-11-26T10:00:46.031Z,20.65
2022-11-26T10:03:18.588Z,20.10
2022-11-26T10:06:00.824Z,20.02
2022-11-26T10:09:03.067Z,20.15
2022-11-26T10:11:45.669Z,19.80
2022-11-26T10:14:56.440Z,18.92
2022-11-26T10:17:23.567Z,18.33
2022-11-26T10:19:51.008Z,20.23
2022-11-26T10:22:26.455Z,19.83
2022-11-26T10:24:57.536Z,19.80
2022-11-26T10:27:28.481Z,19.40
2022-11-26T10:30:03.359Z,19.90
2022-11-26T10:32:39.828Z,19.95
2022-11-26T10:35:07.555Z,29.13
2022-11-26T10:37:34.747Z,20.83
2022-11-26T10:40:24.888Z,20.48
2022-11-26T10:43:20.020Z,19.33
2022-11-26T10:45:58.281Z,18.35
2022-11-26T10:48:29.303Z,17.45
2022-11-26T10:51:00.234Z,18.48
2022-11-26T10:53:29.898Z,16.63
2022-11-26T10:56:00.676Z,16.33
2022-11-26T10:58:33.249Z,16.80
2022-11-26T11:01:03.763Z,15.95
2022-11-26T11:04:06.661Z,15.57
2022-11-26T11:06:37.530Z,15.27
2022-11-26T11:09:24.903Z,16.63
2022-11-26T11:12:22.721Z,14.20
2022-11-26T11:14:54.522Z,14.63
2022-11-26T11:17:34.560Z,14.63
2022-11-26T11:20:25.022Z,15.30
2022-11-26T11:23:31.088Z,15.40
2022-11-26T11:26:24.790Z,14.48
2022-11-26T11:31:25.114Z,14.60
2022-11-26T11:34:20.408Z,14.45
2022-11-26T11:37:06.066Z,14.95
2022-11-26T11:39:35.410Z,14.45
2022-11-26T11:42:06.886Z,14.00
2022-11-26T11:44:43.365Z,14.55
2022-11-26T11:47:29.073Z,15.32
2022-11-26T11:50:36.226Z,15.05
2022-11-26T11:53:18.532Z,16.45
2022-11-26T11:56:06.152Z,14.82
2022-11-26T11:59:08.626Z,16.35
2022-11-26T12:01:57.213Z,15.45
2022-11-26T12:04:51.428Z,15.05
2022-11-26T12:07:28.752Z,14.50
2022-11-26T12:10:08.846Z,15.35
2022-11-26T12:12:49.897Z,14.82
2022-11-26T12:15:26.781Z,15.93
2022-11-26T12:18:06.663Z,14.77
2022-11-26T12:20:39.540Z,15.68
2022-11-26T12:23:37.178Z,16.35
2022-11-26T12:26:15.819Z,14.15
2022-11-26T12:29:00.393Z,14.52
2022-11-26T12:31:36.858Z,14.23
2022-11-26T12:34:25.999Z,13.98
2022-11-26T12:37:19.820Z,14.60
2022-11-26T12:39:59.850Z,14.95
2022-11-26T12:42:42.313Z,13.80
2022-11-26T12:45:42.769Z,13.50
2022-11-26T12:48:28.191Z,14.00
2022-11-26T12:51:03.198Z,14.00
2022-11-26T12:53:52.468Z,14.98
2022-11-26T12:56:31.328Z,15.02
2022-11-26T12:59:23.519Z,14.63
2022-11-26T13:01:51.348Z,12.90
2022-11-26T13:04:49.285Z,14.30
2022-11-26T13:07:34.831Z,15.27
2022-11-26T13:10:01.984Z,13.88
2022-11-26T13:12:35.487Z,14.48
2022-11-26T13:15:31.928Z,13.90
2022-11-26T13:18:01.016Z,13.25
2022-11-26T13:20:46.382Z,14.95
2022-11-26T13:23:17.279Z,13.50
2022-11-26T13:26:24.220Z,13.70
2022-11-26T13:28:51.700Z,12.75
2022-11-26T13:31:47.135Z,13.90
2022-11-26T13:34:46.729Z,14.20
2022-11-26T13:37:40.609Z,14.10
2022-11-26T13:40:14.466Z,13.38
2022-11-26T13:43:03.030Z,13.32
2022-11-26T13:46:05.940Z,13.50
2022-11-26T13:48:51.936Z,13.50
2022-11-26T13:51:27.960Z,12.95
2022-11-26T13:54:11.849Z,12.65
2022-11-26T13:56:41.922Z,14.82
2022-11-26T13:59:23.956Z,13.82
2022-11-26T14:01:54.529Z,14.25
2022-11-26T14:04:24.911Z,14.43
2022-11-26T14:07:04.635Z,14.38
2022-11-26T14:09:47.132Z,14.55
2022-11-26T14:12:16.242Z,15.02
2022-11-26T14:14:46.230Z,14.68
2022-11-26T14:17:17.791Z,14.55
2022-11-26T14:19:44.946Z,14.45
2022-11-26T14:22:21.459Z,18.83
2022-11-26T14:24:48.706Z,19.98
2022-11-26T14:27:37.435Z,21.25
2022-11-26T14:30:07.557Z,14.93
2022-11-26T14:32:39.848Z,15.50
2022-11-26T14:35:30.666Z,15.50
2022-11-26T14:38:03.485Z,14.70
2022-11-26T14:40:33.556Z,14.80
2022-11-26T14:43:17.841Z,15.90
2022-11-26T14:45:48.569Z,14.90
2022-11-26T14:48:25.974Z,15.43
2022-11-26T14:50:54.815Z,14.50
2022-11-26T14:53:25.527Z,15.95
2022-11-26T14:55:53.514Z,14.10
2022-11-26T14:58:35.757Z,16.10
2022-11-26T15:01:18.733Z,15.55
2022-11-26T15:03:58.127Z,16.25
2022-11-26T15:06:27.574Z,16.05
2022-11-26T15:09:15.367Z,15.45
2022-11-26T15:12:08.158Z,15.88
2022-11-26T15:14:46.850Z,14.70
2022-11-26T15:17:18.250Z,17.25
2022-11-26T15:19:47.063Z,18.77
2022-11-26T15:22:39.201Z,19.67
2022-11-26T15:25:17.867Z,18.33
2022-11-26T15:27:54.284Z,20.33
2022-11-26T15:30:30.974Z,18.25
2022-11-26T15:33:11.003Z,19.50
2022-11-26T15:35:40.115Z,19.42
2022-11-26T15:38:18.224Z,20.92
2022-11-26T15:40:59.281Z,20.17
2022-11-26T15:43:42.436Z,21.50
2022-11-26T15:46:16.174Z,19.27
2022-11-26T15:48:52.767Z,20.88
2022-11-26T15:51:41.734Z,20.70
2022-11-26T15:55:10.861Z,21.08
2022-11-26T15:57:36.674Z,20.08
2022-11-26T16:00:20.093Z,21.13
2022-11-26T16:02:47.668Z,21.17
2022-11-26T16:05:38.895Z,20.98
2022-11-26T16:08:25.476Z,20.65
2022-11-26T16:11:16.924Z,19.45
2022-11-26T16:13:44.376Z,16.23
2022-11-26T16:16:21.569Z,21.05
2022-11-26T16:19:00.536Z,20.23
2022-11-26T16:21:33.370Z,20.20
2022-11-26T16:24:07.104Z,21.10
2022-11-26T16:26:57.443Z,20.55
2022-11-26T16:29:26.174Z,20.98
2022-11-26T16:31:53.436Z,21.52
2022-11-26T16:34:21.118Z,20.38
2022-11-26T16:36:48.707Z,20.52
2022-11-26T16:39:17.314Z,20.20
2022-11-26T16:41:44.469Z,19.95
2022-11-26T16:44:11.921Z,20.02
2022-11-26T16:46:41.082Z,19.35
2022-11-26T16:49:10.883Z,20.23
2022-11-26T16:51:38.017Z,20.40
2022-11-26T16:54:05.491Z,21.17
2022-11-26T16:56:37.520Z,21.50
2022-11-26T16:59:19.230Z,20.90
2022-11-26T17:01:46.492Z,22.17
2022-11-26T17:04:14.794Z,21.50
2022-11-26T17:06:42.076Z,23.95
2022-11-26T17:09:17.709Z,23.48
2022-11-26T17:11:45.784Z,23.23
2022-11-26T17:14:13.292Z,26.42
2022-11-26T17:16:41.123Z,24.27
2022-11-26T17:19:13.885Z,26.77
2022-11-26T17:21:41.125Z,25.42
2022-11-26T17:24:08.671Z,25.25
2022-11-26T17:26:36.053Z,27.60
2022-11-26T17:29:03.963Z,25.33
2022-11-26T17:31:31.231Z,24.92
2022-11-26T17:33:58.864Z,25.63
2022-11-26T17:36:26.145Z,24.33
2022-11-26T17:38:53.790Z,27.15
2022-11-26T17:41:20.954Z,24.70
2022-11-26T17:43:48.390Z,24.88
2022-11-26T17:46:21.451Z,24.88
2022-11-26T17:48:51.472Z,25.77
2022-11-26T17:51:21.549Z,24.65
2022-11-26T17:53:49.146Z,25.23
2022-11-26T17:56:22.268Z,24.55
2022-11-26T17:58:50.417Z,24.55
2022-11-26T18:01:18.110Z,24.35
2022-11-26T18:03:46.706Z,25.13
2022-11-26T18:06:20.133Z,25.30
2022-11-26T18:08:47.671Z,26.23
2022-11-26T18:11:16.289Z,24.98
2022-11-26T18:13:44.184Z,23.17
2022-11-26T18:16:11.324Z,24.30
2022-11-26T18:18:38.781Z,25.33
2022-11-26T18:21:06.561Z,26.52
2022-11-26T18:23:34.182Z,27.83
2022-11-26T18:26:01.401Z,25.90
2022-11-26T18:28:29.815Z,27.95
2022-11-26T18:30:58.655Z,26.58
2022-11-26T18:33:26.199Z,26.80
2022-11-26T18:35:53.351Z,26.48
2022-11-26T18:38:20.830Z,26.45
2022-11-26T18:40:58.691Z,26.83
2022-11-26T18:43:26.609Z,27.20
2022-11-26T18:45:53.858Z,26.33
2022-11-26T18:48:21.284Z,25.15
2022-11-26T18:50:58.722Z,25.20
2022-11-26T18:53:26.639Z,25.38
2022-11-26T18:55:54.476Z,22.63
2022-11-26T18:58:23.237Z,23.50
2022-11-26T19:00:52.240Z,23.40
2022-11-26T19:03:19.795Z,22.38
2022-11-26T19:05:51.702Z,21.58
2022-11-26T19:08:20.507Z,23.90
2022-11-26T19:10:48.117Z,22.83
2022-11-26T19:13:16.280Z,25.65
2022-11-26T19:15:44.491Z,21.88
2022-11-26T19:18:16.059Z,23.20
2022-11-26T19:20:53.019Z,23.02
2022-11-26T19:23:24.463Z,24.92
2022-11-26T19:25:52.171Z,22.33
2022-11-26T19:28:19.943Z,23.60
2022-11-26T19:31:03.438Z,23.00
2022-11-26T19:33:32.193Z,23.20
2022-11-26T19:36:03.818Z,23.63
2022-11-26T19:41:00.120Z,23.60
2022-11-26T19:43:30.539Z,22.05
2022-11-26T19:46:03.635Z,23.23
2022-11-26T19:48:33.071Z,23.90
2022-11-26T19:51:00.444Z,24.63
2022-11-26T19:53:28.742Z,24.80
2022-11-26T19:56:08.265Z,24.23
2022-11-26T19:58:36.723Z,23.77
2022-11-26T20:01:09.175Z,24.90
2022-11-26T20:03:37.702Z,23.50
2022-11-26T20:06:14.871Z,24.52
2022-11-26T20:08:43.150Z,24.17
2022-11-26T20:11:11.121Z,23.90
2022-11-26T20:13:40.880Z,26.10
2022-11-26T20:16:10.908Z,25.20
2022-11-26T20:18:40.406Z,26.30
2022-11-26T20:21:10.752Z,27.95
2022-11-26T20:23:38.954Z,27.08
2022-11-26T20:26:14.647Z,28.42
2022-11-26T20:28:42.765Z,27.27
2022-11-26T20:31:10.575Z,26.88
2022-11-26T20:33:38.481Z,26.45
2022-11-26T20:36:11.109Z,25.17
2022-11-26T20:41:15.676Z,25.42
2022-11-26T20:43:43.514Z,26.95
2022-11-26T20:46:12.600Z,26.42
2022-11-26T20:48:42.174Z,26.02
2022-11-26T20:51:12.457Z,26.27
2022-11-26T20:53:41.653Z,24.70
2022-11-26T20:56:09.206Z,25.30
2022-11-26T20:58:36.755Z,25.15
2022-11-26T21:01:04.079Z,24.80
2022-11-26T21:03:32.330Z,26.10
2022-11-26T21:06:03.693Z,25.65
2022-11-26T21:08:31.236Z,25.90
2022-11-26T21:11:03.968Z,24.55
2022-11-26T21:13:31.759Z,24.65
2022-11-26T21:16:02.328Z,23.90
2022-11-26T21:18:30.424Z,25.23
2022-11-26T21:20:58.329Z,24.35
2022-11-26T21:23:26.937Z,24.35
2022-11-26T21:25:54.563Z,23.50
2022-11-26T21:28:22.143Z,23.83
2022-11-26T21:30:49.453Z,23.52
2022-11-26T21:33:17.012Z,21.80
2022-11-26T21:35:44.144Z,21.77
2022-11-26T21:38:11.654Z,20.17
2022-11-26T21:40:38.931Z,19.98
2022-11-26T21:43:06.568Z,21.15
2022-11-26T21:45:33.866Z,19.15
2022-11-26T21:48:01.389Z,18.95
2022-11-26T21:50:28.523Z,20.15
2022-11-26T21:52:56.027Z,19.38
2022-11-26T21:55:23.241Z,17.05
2022-11-26T21:57:50.745Z,17.13
2022-11-26T22:00:18.652Z,16.77
2022-11-26T22:02:46.153Z,16.83
2022-11-26T22:05:13.505Z,15.50
2022-11-26T22:07:41.011Z,14.73
2022-11-26T22:10:08.986Z,14.77
2022-11-26T22:12:36.450Z,15.73
2022-11-26T22:15:03.907Z,15.52
2022-11-26T22:17:31.338Z,14.65
2022-11-26T22:19:58.516Z,13.57
2022-11-26T22:22:25.991Z,13.90
2022-11-26T22:24:53.219Z,13.75
2022-11-26T22:27:21.262Z,13.30
2022-11-26T22:29:48.571Z,12.63
2022-11-26T22:32:16.150Z,14.15
2022-11-26T22:34:43.312Z,15.88
2022-11-26T22:37:10.762Z,14.90
2022-11-26T22:39:38.268Z,15.25
2022-11-26T22:42:06.046Z,16.80
2022-11-26T22:44:34.122Z,16.52
2022-11-26T22:47:01.831Z,16.05
2022-11-26T22:49:29.054Z,17.25
2022-11-26T22:51:56.536Z,16.27
2022-11-26T22:54:24.136Z,16.48
2022-11-26T22:56:51.592Z,14.70
2022-11-26T22:59:18.808Z,14.95
2022-11-26T23:01:46.288Z,16.90
2022-11-26T23:04:13.552Z,16.20
2022-11-26T23:06:41.055Z,17.15
2022-11-26T23:09:09.731Z,16.42
2022-11-26T23:11:40.518Z,14.80
2022-11-26T23:14:09.695Z,15.77
2022-11-26T23:16:40.018Z,15.65
2022-11-26T23:19:07.347Z,15.98
2022-11-26T23:21:40.110Z,16.02
2022-11-26T23:24:07.938Z,16.85
2022-11-26T23:26:37.282Z,15.93
2022-11-26T23:29:05.642Z,15.55
2022-11-26T23:31:36.395Z,15.52
2022-11-26T23:34:04.935Z,15.95
2022-11-26T23:36:33.357Z,14.70
2022-11-26T23:39:02.098Z,15.18
2022-11-26T23:41:29.904Z,15.73
2022-11-26T23:43:57.046Z,15.13
2022-11-26T23:46:31.152Z,14.48
2022-11-26T23:48:58.788Z,14.75
2022-11-26T23:51:32.028Z,15.13
2022-11-26T23:53:59.259Z,15.40
2022-11-26T23:56:32.683Z,15.98
2022-11-26T23:59:02.701Z,15.50
